Kinkaid, Illinois
Current Conditions -  °F | °C
As of 11:52 PM on Tuesday 21 Oct 2014 (Local Time) from KMDH Reporting Station
Clear Clear  
Wind Chill:   Ceiling: Unl
Heat Index:   Visibility: NA
Dew Point:   Wind: 3mph
Humidity: 85%   Direction: 40°NE
Pressure: 30.19"   Gusts: NA
Location:  37.8835°N, 89.4465°W
Report Text: KMDH 220452Z AUTO 04003KT CLR 07/04 A3019 RMK AO2 SLP224 T00670044 $
Loading
Personal Weather Stations






























Interactive Weather Map
Tropical Storm Tracking
New forecast layout! Learn more

10-Day Weather Forecast

Advertisements
Track Severe Weather on mobile